Hub City, South Dakota
Current Conditions -  °F | °C
As of 1:35 PM on Tuesday 21 Oct 2014 (Local Time) from KYKN Reporting Station
Clear Clear  
Wind Chill: 73°   Ceiling: Unl
Heat Index: 73°   Visibility: 8mi
Dew Point: 46°   Wind: 14mph
Humidity: 38%   Direction: 150°SSE
Pressure: 29.99"   Gusts: 18mph
Location:  42.8915°N, 96.9263°W
Report Text: KYKN 211835Z AUTO 15012G16KT 8SM CLR 23/08 A2999 RMK AO1
Loading
Personal Weather Stations






























Interactive Weather Map
Tropical Storm Tracking
New forecast layout! Learn more

10-Day Weather Forecast

Advertisements
Track Severe Weather on mobile